Time,TemperatureF,DewpointF,PressureIn,WindDirection,WindDirectionDegrees,WindSpeedMPH,WindSpeedGustMPH,Humidity,HourlyPrecipIn,Conditions,Clouds,dailyrainin,SoftwareType,DateUTC
2013-04-28 00:00:00,56.7,40.0,30.20,SSE,148,1.0,4.0,54,0.00,,,0.00,weatherlink.com 1.10,2013-04-28 04:00:00,
2013-04-28 00:15:00,56.6,40.0,30.20,ENE,73,1.0,4.0,54,0.00,,,0.00,weatherlink.com 1.10,2013-04-28 04:15:00,
2013-04-28 00:30:00,56.3,40.0,30.20,NE,55,0.0,4.0,55,0.00,,,0.00,weatherlink.com 1.10,2013-04-28 04:30:00,
2013-04-28 00:45:00,55.9,40.0,30.19,ENE,63,0.0,2.0,55,0.00,,,0.00,weatherlink.com 1.10,2013-04-28 04:45:00,
2013-04-28 01:00:00,55.5,39.0,30.19,ENE,63,0.0,1.0,55,0.00,,,0.00,weatherlink.com 1.10,2013-04-28 05:00:00,
2013-04-28 01:15:00,54.9,40.0,30.19,ENE,63,0.0,0.0,57,0.00,,,0.00,weatherlink.com 1.10,2013-04-28 05:15:00,
2013-04-28 01:30:00,54.0,39.0,30.19,ENE,63,0.0,0.0,58,0.00,,,0.00,weatherlink.com 1.10,2013-04-28 05:30:00,
2013-04-28 01:45:00,53.4,39.0,30.19,East,84,0.0,1.0,58,0.00,,,0.00,weatherlink.com 1.10,2013-04-28 05:45:00,
2013-04-28 02:01:00,52.4,39.0,30.19,East,84,0.0,1.0,60,0.00,,,0.00,weatherlink.com 1.10,2013-04-28 06:01:00,
2013-04-28 02:17:00,50.4,40.0,30.19,East,83,0.0,2.0,67,0.00,,,0.00,weatherlink.com 1.10,2013-04-28 06:17:00,
2013-04-28 02:31:00,49.1,40.0,30.18,East,83,0.0,0.0,71,0.00,,,0.00,weatherlink.com 1.10,2013-04-28 06:31:00,
2013-04-28 02:46:00,48.4,39.0,30.17,NE,44,0.0,2.0,71,0.00,,,0.00,weatherlink.com 1.10,2013-04-28 06:46:00,
2013-04-28 03:01:00,47.9,40.0,30.16,NE,44,0.0,0.0,73,0.00,,,0.00,weatherlink.com 1.10,2013-04-28 07:01:00,
2013-04-28 03:16:00,47.8,40.0,30.16,NE,44,0.0,0.0,73,0.00,,,0.00,weatherlink.com 1.10,2013-04-28 07:16:00,
2013-04-28 03:31:00,48.1,39.0,30.16,NE,44,0.0,0.0,71,0.00,,,0.00,weatherlink.com 1.10,2013-04-28 07:31:00,
2013-04-28 03:46:00,49.8,40.0,30.16,NE,45,0.0,0.0,69,0.00,,,0.00,weatherlink.com 1.10,2013-04-28 07:46:00,
2013-04-28 04:01:00,50.6,40.0,30.16,East,99,0.0,0.0,66,0.00,,,0.00,weatherlink.com 1.10,2013-04-28 08:01:00,
2013-04-28 04:16:00,50.6,40.0,30.15,East,99,0.0,0.0,66,0.00,,,0.00,weatherlink.com 1.10,2013-04-28 08:16:00,
2013-04-28 04:31:00,48.6,40.0,30.16,East,99,0.0,1.0,71,0.00,,,0.00,weatherlink.com 1.10,2013-04-28 08:31:00,
2013-04-28 04:46:00,47.4,39.0,30.16,East,99,0.0,1.0,73,0.00,,,0.00,weatherlink.com 1.10,2013-04-28 08:46:00,
2013-04-28 05:01:00,47.0,39.0,30.16,East,99,0.0,0.0,75,0.00,,,0.00,weatherlink.com 1.10,2013-04-28 09:01:00,
2013-04-28 05:16:00,47.0,38.0,30.15,East,99,0.0,0.0,72,0.00,,,0.00,weatherlink.com 1.10,2013-04-28 09:16:00,
2013-04-28 05:31:00,48.0,38.0,30.14,ENE,71,0.0,0.0,69,0.00,,,0.00,weatherlink.com 1.10,2013-04-28 09:31:00,
2013-04-28 05:46:00,48.5,38.0,30.15,ENE,72,0.0,0.0,67,0.00,,,0.00,weatherlink.com 1.10,2013-04-28 09:46:00,
2013-04-28 06:01:00,49.3,38.0,30.15,East,99,0.0,3.0,65,0.00,,,0.00,weatherlink.com 1.10,2013-04-28 10:01:00,
2013-04-28 06:16:00,49.2,39.0,30.16,East,99,0.0,0.0,67,0.00,,,0.00,weatherlink.com 1.10,2013-04-28 10:16:00,
2013-04-28 06:31:00,48.7,38.0,30.16,East,99,0.0,1.0,66,0.00,,,0.00,weatherlink.com 1.10,2013-04-28 10:31:00,
2013-04-28 06:46:00,48.4,38.0,30.16,East,99,0.0,1.0,68,0.00,,,0.00,weatherlink.com 1.10,2013-04-28 10:46:00,
2013-04-28 07:01:00,50.5,39.0,30.16,East,92,0.0,1.0,64,0.00,,,0.00,weatherlink.com 1.10,2013-04-28 11:01:00,
2013-04-28 07:16:00,53.0,40.0,30.16,SE,126,1.0,2.0,61,0.00,,,0.00,weatherlink.com 1.10,2013-04-28 11:16:00,
2013-04-28 07:31:00,54.7,41.0,30.16,ESE,122,4.0,5.0,60,0.00,,,0.00,weatherlink.com 1.10,2013-04-28 11:31:00,
2013-04-28 07:46:00,56.0,41.0,30.16,ESE,107,0.0,6.0,58,0.00,,,0.00,weatherlink.com 1.10,2013-04-28 11:46:00,
2013-04-28 08:01:00,57.3,40.0,30.16,ESE,111,0.0,7.0,53,0.00,,,0.00,weatherlink.com 1.10,2013-04-28 12:01:00,
2013-04-28 08:16:00,58.4,40.0,30.16,ENE,77,2.0,8.0,51,0.00,,,0.00,weatherlink.com 1.10,2013-04-28 12:16:00,
2013-04-28 08:31:00,59.4,41.0,30.16,ESE,115,0.0,3.0,51,0.00,,,0.00,weatherlink.com 1.10,2013-04-28 12:31:00,
2013-04-28 08:46:00,59.8,39.0,30.16,NW,323,2.0,8.0,47,0.00,,,0.00,weatherlink.com 1.10,2013-04-28 12:46:00,
2013-04-28 09:01:00,59.4,41.0,30.16,ESE,103,4.0,8.0,50,0.00,,,0.00,weatherlink.com 1.10,2013-04-28 13:01:00,
2013-04-28 09:16:00,59.3,39.0,30.16,ESE,115,2.0,8.0,48,0.00,,,0.00,weatherlink.com 1.10,2013-04-28 13:16:00,
2013-04-28 09:31:00,59.1,40.0,30.16,ESE,103,2.0,5.0,49,0.00,,,0.00,weatherlink.com 1.10,2013-04-28 13:31:00,
2013-04-28 09:46:00,60.5,41.0,30.16,SSE,157,2.0,8.0,49,0.00,,,0.00,weatherlink.com 1.10,2013-04-28 13:46:00,
2013-04-28 10:01:00,60.2,40.0,30.16,SE,125,1.0,6.0,48,0.00,,,0.00,weatherlink.com 1.10,2013-04-28 14:01:00,
2013-04-28 10:16:00,60.2,41.0,30.16,ESE,103,1.0,7.0,49,0.00,,,0.00,weatherlink.com 1.10,2013-04-28 14:16:00,
2013-04-28 10:31:00,60.5,39.0,30.16,ESE,103,4.0,9.0,45,0.00,,,0.00,weatherlink.com 1.10,2013-04-28 14:31:00,
2013-04-28 10:46:00,60.5,39.0,30.16,East,88,1.0,6.0,45,0.00,,,0.00,weatherlink.com 1.10,2013-04-28 14:46:00,
2013-04-28 11:01:00,60.5,39.0,30.16,ENE,61,3.0,8.0,45,0.00,,,0.00,weatherlink.com 1.10,2013-04-28 15:01:00,
2013-04-28 11:16:00,60.5,39.0,30.17,NE,56,2.0,7.0,46,0.00,,,0.00,weatherlink.com 1.10,2013-04-28 15:16:00,
2013-04-28 11:31:00,60.5,39.0,30.17,WSW,242,0.0,9.0,46,0.00,,,0.00,weatherlink.com 1.10,2013-04-28 15:31:00,
2013-04-28 11:47:00,60.4,40.0,30.17,ENE,67,7.0,9.0,47,0.00,,,0.00,weatherlink.com 1.10,2013-04-28 15:47:00,
2013-04-28 12:02:00,60.1,40.0,30.17,SSW,200,1.0,6.0,48,0.00,,,0.00,weatherlink.com 1.10,2013-04-28 16:02:00,
2013-04-28 12:17:00,60.0,42.0,30.17,ESE,122,1.0,7.0,51,0.00,,,0.00,weatherlink.com 1.10,2013-04-28 16:17:00,
2013-04-28 12:32:00,59.2,44.0,30.17,ENE,76,5.0,6.0,57,0.00,,,0.00,weatherlink.com 1.10,2013-04-28 16:32:00,
2013-04-28 12:47:00,57.7,45.0,30.17,NE,39,0.0,3.0,63,0.00,,,0.00,weatherlink.com 1.10,2013-04-28 16:47:00,
2013-04-28 13:02:00,55.8,47.0,30.17,East,79,0.0,3.0,73,0.01,,,0.01,weatherlink.com 1.10,2013-04-28 17:02:00,
2013-04-28 13:17:00,54.8,46.0,30.17,East,92,1.0,7.0,73,0.01,,,0.01,weatherlink.com 1.10,2013-04-28 17:17:00,
2013-04-28 13:32:00,54.2,48.0,30.17,East,79,0.0,4.0,79,0.02,,,0.02,weatherlink.com 1.10,2013-04-28 17:32:00,
2013-04-28 13:47:00,53.7,47.0,30.17,East,101,0.0,5.0,79,0.03,,,0.03,weatherlink.com 1.10,2013-04-28 17:47:00,
2013-04-28 14:02:00,53.1,48.0,30.17,East,84,2.0,4.0,84,0.03,,,0.04,weatherlink.com 1.10,2013-04-28 18:02:00,
2013-04-28 14:17:00,52.7,47.0,30.17,ENE,63,1.0,5.0,82,0.04,,,0.05,weatherlink.com 1.10,2013-04-28 18:17:00,
2013-04-28 14:32:00,52.2,48.0,30.17,ENE,71,0.0,6.0,86,0.04,,,0.06,weatherlink.com 1.10,2013-04-28 18:32:00,
2013-04-28 14:47:00,51.9,48.0,30.17,East,98,2.0,4.0,87,0.04,,,0.07,weatherlink.com 1.10,2013-04-28 18:47:00,
2013-04-28 15:02:00,51.7,48.0,30.16,East,94,2.0,6.0,88,0.05,,,0.09,weatherlink.com 1.10,2013-04-28 19:02:00,
2013-04-28 15:17:00,51.6,49.0,30.15,NE,36,2.0,5.0,90,0.05,,,0.10,weatherlink.com 1.10,2013-04-28 19:17:00,
2013-04-28 15:32:00,51.6,49.0,30.14,East,101,0.0,7.0,89,0.05,,,0.11,weatherlink.com 1.10,2013-04-28 19:32:00,
2013-04-28 15:47:00,51.8,49.0,30.13,SE,128,2.0,5.0,89,0.03,,,0.11,weatherlink.com 1.10,2013-04-28 19:47:00,
2013-04-28 16:02:00,52.1,49.0,30.12,East,85,2.0,5.0,89,0.02,,,0.11,weatherlink.com 1.10,2013-04-28 20:02:00,
2013-04-28 16:17:00,52.4,49.0,30.12,ENE,60,0.0,5.0,88,0.01,,,0.12,weatherlink.com 1.10,2013-04-28 20:17:00,
2013-04-28 16:32:00,52.7,49.0,30.12,ESE,115,0.0,2.0,88,0.01,,,0.12,weatherlink.com 1.10,2013-04-28 20:32:00,
2013-04-28 16:47:00,52.8,49.0,30.12,NE,53,0.0,1.0,88,0.01,,,0.12,weatherlink.com 1.10,2013-04-28 20:47:00,
2013-04-28 17:02:00,52.4,49.0,30.11,SSE,167,0.0,3.0,88,0.01,,,0.12,weatherlink.com 1.10,2013-04-28 21:02:00,
2013-04-28 17:17:00,52.3,49.0,30.11,SE,138,1.0,2.0,88,0.00,,,0.12,weatherlink.com 1.10,2013-04-28 21:17:00,
2013-04-28 17:32:00,52.3,50.0,30.10,East,94,0.0,0.0,90,0.01,,,0.13,weatherlink.com 1.10,2013-04-28 21:32:00,
2013-04-28 17:47:00,52.2,49.0,30.09,East,94,0.0,0.0,90,0.01,,,0.13,weatherlink.com 1.10,2013-04-28 21:47:00,
2013-04-28 18:02:00,52.2,49.0,30.08,East,94,0.0,0.0,90,0.01,,,0.13,weatherlink.com 1.10,2013-04-28 22:02:00,
2013-04-28 18:17:00,52.3,50.0,30.08,NW,316,1.0,2.0,91,0.02,,,0.14,weatherlink.com 1.10,2013-04-28 22:17:00,
2013-04-28 18:32:00,52.4,50.0,30.07,NW,315,0.0,0.0,92,0.01,,,0.14,weatherlink.com 1.10,2013-04-28 22:32:00,
2013-04-28 18:47:00,52.3,50.0,30.07,NW,315,0.0,1.0,92,0.01,,,0.14,weatherlink.com 1.10,2013-04-28 22:47:00,
2013-04-28 19:02:00,52.0,50.0,30.07,NW,315,0.0,1.0,93,0.01,,,0.14,weatherlink.com 1.10,2013-04-28 23:02:00,
2013-04-28 19:17:00,51.7,50.0,30.06,NW,315,0.0,0.0,93,0.00,,,0.14,weatherlink.com 1.10,2013-04-28 23:17:00,
2013-04-28 19:32:00,51.8,50.0,30.06,NW,315,0.0,0.0,94,0.00,,,0.14,weatherlink.com 1.10,2013-04-28 23:32:00,
2013-04-28 19:47:00,51.8,50.0,30.07,NW,315,0.0,0.0,94,0.00,,,0.14,weatherlink.com 1.10,2013-04-28 23:47:00,
2013-04-28 20:02:00,51.7,50.0,30.06,NE,54,0.0,1.0,94,0.00,,,0.14,weatherlink.com 1.10,2013-04-29 00:02:00,
2013-04-28 20:17:00,51.7,50.0,30.06,NE,54,0.0,1.0,95,0.00,,,0.14,weatherlink.com 1.10,2013-04-29 00:17:00,
2013-04-28 20:32:00,51.6,50.0,30.06,SSW,199,0.0,3.0,94,0.00,,,0.14,weatherlink.com 1.10,2013-04-29 00:32:00,
2013-04-28 20:47:00,51.8,50.0,30.07,North,350,0.0,2.0,92,0.00,,,0.14,weatherlink.com 1.10,2013-04-29 00:47:00,
2013-04-28 21:02:00,51.9,50.0,30.07,North,350,0.0,0.0,93,0.00,,,0.14,weatherlink.com 1.10,2013-04-29 01:02:00,
2013-04-28 21:17:00,51.9,49.0,30.07,North,350,0.0,0.0,91,0.00,,,0.14,weatherlink.com 1.10,2013-04-29 01:17:00,
2013-04-28 21:32:00,52.4,49.0,30.07,SE,143,0.0,5.0,88,0.00,,,0.14,weatherlink.com 1.10,2013-04-29 01:32:00,
2013-04-28 21:47:00,52.8,49.0,30.07,SW,228,2.0,3.0,86,0.00,,,0.14,weatherlink.com 1.10,2013-04-29 01:47:00,
2013-04-28 22:02:00,53.3,48.0,30.08,East,83,0.0,2.0,83,0.00,,,0.14,weatherlink.com 1.10,2013-04-29 02:02:00,
2013-04-28 22:17:00,53.7,48.0,30.07,ENE,65,1.0,3.0,81,0.00,,,0.14,weatherlink.com 1.10,2013-04-29 02:17:00,
2013-04-28 22:32:00,53.8,48.0,30.07,ESE,113,0.0,2.0,80,0.00,,,0.14,weatherlink.com 1.10,2013-04-29 02:32:00,
2013-04-28 22:47:00,54.3,49.0,30.06,East,83,0.0,5.0,81,0.00,,,0.14,weatherlink.com 1.10,2013-04-29 02:47:00,
2013-04-28 23:02:00,54.4,49.0,30.06,WNW,300,1.0,3.0,81,0.00,,,0.14,weatherlink.com 1.10,2013-04-29 03:02:00,
2013-04-28 23:17:00,54.5,48.0,30.06,East,86,3.0,5.0,80,0.00,,,0.14,weatherlink.com 1.10,2013-04-29 03:17:00,
2013-04-28 23:32:00,54.5,48.0,30.06,ENE,59,0.0,4.0,80,0.00,,,0.14,weatherlink.com 1.10,2013-04-29 03:32:00,
2013-04-28 23:47:00,54.6,49.0,30.06,East,100,2.0,5.0,81,0.00,,,0.14,weatherlink.com 1.10,2013-04-29 03:47:00,